sensor_id;sensor_type;location;lat;lon;timestamp;P1;durP1;ratioP1;P2;durP2;ratioP2
5569;SDS011;2808;51.240;6.794;2024-03-23T00:56:07;17.80;;;4.23;;
5569;SDS011;2808;51.240;6.794;2024-03-23T00:58:35;13.80;;;3.00;;
5569;SDS011;2808;51.240;6.794;2024-03-23T01:01:11;13.00;;;3.37;;
5569;SDS011;2808;51.240;6.794;2024-03-23T01:03:38;18.63;;;4.00;;
5569;SDS011;2808;51.240;6.794;2024-03-23T01:06:05;17.50;;;3.70;;
5569;SDS011;2808;51.240;6.794;2024-03-23T01:08:32;22.60;;;4.07;;
5569;SDS011;2808;51.240;6.794;2024-03-23T01:10:59;29.13;;;4.07;;
5569;SDS011;2808;51.240;6.794;2024-03-23T01:13:28;22.27;;;4.10;;
5569;SDS011;2808;51.240;6.794;2024-03-23T01:15:55;13.60;;;3.40;;
5569;SDS011;2808;51.240;6.794;2024-03-23T01:18:24;24.23;;;4.50;;
5569;SDS011;2808;51.240;6.794;2024-03-23T01:20:51;16.10;;;4.10;;
5569;SDS011;2808;51.240;6.794;2024-03-23T01:23:19;13.07;;;3.50;;
5569;SDS011;2808;51.240;6.794;2024-03-23T01:25:51;27.80;;;4.37;;
5569;SDS011;2808;51.240;6.794;2024-03-23T01:28:19;16.50;;;3.80;;
5569;SDS011;2808;51.240;6.794;2024-03-23T01:30:45;18.90;;;3.73;;
5569;SDS011;2808;51.240;6.794;2024-03-23T01:33:13;18.23;;;4.90;;
5569;SDS011;2808;51.240;6.794;2024-03-23T01:35:41;19.13;;;3.43;;
5569;SDS011;2808;51.240;6.794;2024-03-23T01:38:08;23.93;;;4.07;;
5569;SDS011;2808;51.240;6.794;2024-03-23T01:40:35;17.37;;;2.77;;
5569;SDS011;2808;51.240;6.794;2024-03-23T01:43:03;8.97;;;2.53;;
5569;SDS011;2808;51.240;6.794;2024-03-23T01:45:31;14.53;;;2.93;;
5569;SDS011;2808;51.240;6.794;2024-03-23T01:47:58;13.73;;;2.93;;
5569;SDS011;2808;51.240;6.794;2024-03-23T01:50:25;14.27;;;2.93;;
5569;SDS011;2808;51.240;6.794;2024-03-23T01:52:55;15.03;;;3.30;;
5569;SDS011;2808;51.240;6.794;2024-03-23T01:55:21;14.67;;;3.23;;
5569;SDS011;2808;51.240;6.794;2024-03-23T01:57:49;12.57;;;2.43;;
5569;SDS011;2808;51.240;6.794;2024-03-23T02:00:18;12.10;;;3.10;;
5569;SDS011;2808;51.240;6.794;2024-03-23T02:02:45;12.77;;;2.87;;
5569;SDS011;2808;51.240;6.794;2024-03-23T02:05:12;12.60;;;2.77;;
5569;SDS011;2808;51.240;6.794;2024-03-23T02:07:39;12.77;;;3.70;;
5569;SDS011;2808;51.240;6.794;2024-03-23T02:10:09;14.07;;;2.60;;
5569;SDS011;2808;51.240;6.794;2024-03-23T02:12:43;13.50;;;2.97;;
5569;SDS011;2808;51.240;6.794;2024-03-23T02:15:09;9.47;;;2.43;;
5569;SDS011;2808;51.240;6.794;2024-03-23T02:17:36;9.70;;;2.70;;
5569;SDS011;2808;51.240;6.794;2024-03-23T02:20:03;15.20;;;2.57;;
5569;SDS011;2808;51.240;6.794;2024-03-23T02:22:38;11.87;;;2.30;;
5569;SDS011;2808;51.240;6.794;2024-03-23T02:25:06;11.77;;;2.43;;
5569;SDS011;2808;51.240;6.794;2024-03-23T02:27:33;7.80;;;2.17;;
5569;SDS011;2808;51.240;6.794;2024-03-23T02:30:01;21.97;;;2.73;;
5569;SDS011;2808;51.240;6.794;2024-03-23T02:32:28;12.77;;;2.40;;
5569;SDS011;2808;51.240;6.794;2024-03-23T02:34:55;10.40;;;2.30;;
5569;SDS011;2808;51.240;6.794;2024-03-23T02:37:22;14.63;;;2.53;;
5569;SDS011;2808;51.240;6.794;2024-03-23T02:39:49;11.27;;;2.30;;
5569;SDS011;2808;51.240;6.794;2024-03-23T02:42:18;10.10;;;2.27;;
5569;SDS011;2808;51.240;6.794;2024-03-23T02:44:45;11.67;;;2.57;;
5569;SDS011;2808;51.240;6.794;2024-03-23T02:47:12;10.80;;;2.33;;
5569;SDS011;2808;51.240;6.794;2024-03-23T02:49:39;8.20;;;1.97;;
5569;SDS011;2808;51.240;6.794;2024-03-23T02:52:06;13.80;;;2.33;;
5569;SDS011;2808;51.240;6.794;2024-03-23T02:54:33;12.27;;;2.20;;
5569;SDS011;2808;51.240;6.794;2024-03-23T02:57:00;14.40;;;2.17;;
5569;SDS011;2808;51.240;6.794;2024-03-23T02:59:28;12.53;;;2.10;;
5569;SDS011;2808;51.240;6.794;2024-03-23T03:01:55;8.13;;;2.00;;
5569;SDS011;2808;51.240;6.794;2024-03-23T03:04:22;7.70;;;2.07;;
5569;SDS011;2808;51.240;6.794;2024-03-23T03:06:49;11.90;;;2.20;;
5569;SDS011;2808;51.240;6.794;2024-03-23T03:09:16;12.10;;;2.70;;
5569;SDS011;2808;51.240;6.794;2024-03-23T03:11:43;15.37;;;2.40;;
5569;SDS011;2808;51.240;6.794;2024-03-23T03:14:10;10.63;;;2.70;;
5569;SDS011;2808;51.240;6.794;2024-03-23T03:16:38;10.50;;;2.07;;
5569;SDS011;2808;51.240;6.794;2024-03-23T03:19:05;9.50;;;2.83;;
5569;SDS011;2808;51.240;6.794;2024-03-23T03:21:32;11.43;;;2.00;;
5569;SDS011;2808;51.240;6.794;2024-03-23T03:23:58;12.47;;;2.17;;
5569;SDS011;2808;51.240;6.794;2024-03-23T03:26:26;20.73;;;2.37;;
5569;SDS011;2808;51.240;6.794;2024-03-23T03:28:52;8.37;;;2.00;;
5569;SDS011;2808;51.240;6.794;2024-03-23T03:31:20;14.90;;;2.33;;
5569;SDS011;2808;51.240;6.794;2024-03-23T03:33:49;15.17;;;2.37;;
5569;SDS011;2808;51.240;6.794;2024-03-23T03:36:16;11.83;;;2.20;;
5569;SDS011;2808;51.240;6.794;2024-03-23T03:38:43;10.00;;;1.80;;
5569;SDS011;2808;51.240;6.794;2024-03-23T03:41:11;6.80;;;1.83;;
5569;SDS011;2808;51.240;6.794;2024-03-23T03:43:37;7.50;;;2.50;;
5569;SDS011;2808;51.240;6.794;2024-03-23T03:46:04;11.10;;;1.90;;
5569;SDS011;2808;51.240;6.794;2024-03-23T03:48:33;9.93;;;2.70;;
5569;SDS011;2808;51.240;6.794;2024-03-23T03:51:02;13.00;;;2.47;;
5569;SDS011;2808;51.240;6.794;2024-03-23T03:53:29;22.03;;;2.67;;
5569;SDS011;2808;51.240;6.794;2024-03-23T03:55:56;13.03;;;2.20;;
5569;SDS011;2808;51.240;6.794;2024-03-23T03:58:25;12.57;;;2.10;;
5569;SDS011;2808;51.240;6.794;2024-03-23T04:00:53;12.33;;;1.90;;
5569;SDS011;2808;51.240;6.794;2024-03-23T04:03:20;10.03;;;2.63;;
5569;SDS011;2808;51.240;6.794;2024-03-23T04:05:50;15.80;;;2.87;;
5569;SDS011;2808;51.240;6.794;2024-03-23T04:08:18;11.93;;;2.97;;
5569;SDS011;2808;51.240;6.794;2024-03-23T04:10:45;15.90;;;2.63;;
5569;SDS011;2808;51.240;6.794;2024-03-23T04:13:12;12.20;;;3.07;;
5569;SDS011;2808;51.240;6.794;2024-03-23T04:15:40;12.90;;;2.37;;
5569;SDS011;2808;51.240;6.794;2024-03-23T04:18:06;7.80;;;1.93;;
5569;SDS011;2808;51.240;6.794;2024-03-23T04:20:34;14.93;;;2.30;;
5569;SDS011;2808;51.240;6.794;2024-03-23T04:23:00;12.80;;;3.20;;
5569;SDS011;2808;51.240;6.794;2024-03-23T04:25:29;13.53;;;2.90;;
5569;SDS011;2808;51.240;6.794;2024-03-23T04:27:57;12.63;;;2.33;;
5569;SDS011;2808;51.240;6.794;2024-03-23T04:30:24;20.90;;;2.33;;
5569;SDS011;2808;51.240;6.794;2024-03-23T04:32:53;14.97;;;2.57;;
5569;SDS011;2808;51.240;6.794;2024-03-23T04:35:22;9.60;;;2.00;;
5569;SDS011;2808;51.240;6.794;2024-03-23T04:37:50;11.40;;;2.60;;
5569;SDS011;2808;51.240;6.794;2024-03-23T04:40:18;12.17;;;2.00;;
5569;SDS011;2808;51.240;6.794;2024-03-23T04:42:47;14.87;;;2.53;;
5569;SDS011;2808;51.240;6.794;2024-03-23T04:45:14;12.40;;;2.90;;
5569;SDS011;2808;51.240;6.794;2024-03-23T04:47:42;22.80;;;3.23;;
5569;SDS011;2808;51.240;6.794;2024-03-23T04:50:09;17.57;;;2.60;;
5569;SDS011;2808;51.240;6.794;2024-03-23T04:52:36;15.67;;;2.47;;
5569;SDS011;2808;51.240;6.794;2024-03-23T04:55:05;14.10;;;3.10;;
5569;SDS011;2808;51.240;6.794;2024-03-23T04:57:32;14.13;;;2.27;;
5569;SDS011;2808;51.240;6.794;2024-03-23T05:00:04;12.33;;;2.80;;
5569;SDS011;2808;51.240;6.794;2024-03-23T05:02:41;13.87;;;2.93;;
5569;SDS011;2808;51.240;6.794;2024-03-23T05:05:10;12.83;;;2.83;;
5569;SDS011;2808;51.240;6.794;2024-03-23T05:07:37;19.73;;;3.03;;
5569;SDS011;2808;51.240;6.794;2024-03-23T05:10:09;17.53;;;3.07;;
5569;SDS011;2808;51.240;6.794;2024-03-23T05:12:36;9.30;;;2.70;;
5569;SDS011;2808;51.240;6.794;2024-03-23T05:15:05;9.07;;;2.87;;
5569;SDS011;2808;51.240;6.794;2024-03-23T05:17:32;14.03;;;3.43;;
5569;SDS011;2808;51.240;6.794;2024-03-23T05:20:01;20.03;;;3.47;;
5569;SDS011;2808;51.240;6.794;2024-03-23T05:22:28;13.73;;;2.90;;
5569;SDS011;2808;51.240;6.794;2024-03-23T05:24:58;15.57;;;3.27;;
5569;SDS011;2808;51.240;6.794;2024-03-23T05:27:25;13.03;;;2.50;;
5569;SDS011;2808;51.240;6.794;2024-03-23T05:29:52;11.77;;;3.10;;
5569;SDS011;2808;51.240;6.794;2024-03-23T05:32:20;14.10;;;2.77;;
5569;SDS011;2808;51.240;6.794;2024-03-23T05:34:48;13.50;;;3.13;;
5569;SDS011;2808;51.240;6.794;2024-03-23T05:37:16;18.43;;;3.77;;
5569;SDS011;2808;51.240;6.794;2024-03-23T05:39:44;14.43;;;3.20;;
5569;SDS011;2808;51.240;6.794;2024-03-23T05:42:11;8.57;;;2.90;;
5569;SDS011;2808;51.240;6.794;2024-03-23T05:44:39;18.07;;;3.70;;
5569;SDS011;2808;51.240;6.794;2024-03-23T05:47:06;15.83;;;2.93;;
5569;SDS011;2808;51.240;6.794;2024-03-23T05:49:35;13.10;;;3.03;;
5569;SDS011;2808;51.240;6.794;2024-03-23T05:52:02;22.50;;;4.20;;
5569;SDS011;2808;51.240;6.794;2024-03-23T05:54:30;20.13;;;3.63;;
5569;SDS011;2808;51.240;6.794;2024-03-23T05:56:57;16.20;;;3.10;;
5569;SDS011;2808;51.240;6.794;2024-03-23T05:59:24;25.90;;;3.90;;
5569;SDS011;2808;51.240;6.794;2024-03-23T06:01:52;12.03;;;3.90;;
5569;SDS011;2808;51.240;6.794;2024-03-23T06:04:19;10.83;;;3.27;;
5569;SDS011;2808;51.240;6.794;2024-03-23T06:06:47;12.53;;;3.30;;
5569;SDS011;2808;51.240;6.794;2024-03-23T06:09:15;23.07;;;4.90;;
5569;SDS011;2808;51.240;6.794;2024-03-23T06:11:41;17.20;;;4.97;;
5569;SDS011;2808;51.240;6.794;2024-03-23T06:14:09;16.00;;;3.90;;
5569;SDS011;2808;51.240;6.794;2024-03-23T06:16:41;15.93;;;4.20;;
5569;SDS011;2808;51.240;6.794;2024-03-23T06:19:10;11.60;;;3.87;;
5569;SDS011;2808;51.240;6.794;2024-03-23T06:21:37;13.00;;;4.07;;
5569;SDS011;2808;51.240;6.794;2024-03-23T06:24:10;20.70;;;4.10;;
5569;SDS011;2808;51.240;6.794;2024-03-23T06:26:37;21.47;;;4.90;;
5569;SDS011;2808;51.240;6.794;2024-03-23T06:29:04;15.60;;;4.27;;
5569;SDS011;2808;51.240;6.794;2024-03-23T06:31:31;17.83;;;3.90;;
5569;SDS011;2808;51.240;6.794;2024-03-23T06:33:58;18.17;;;3.83;;
5569;SDS011;2808;51.240;6.794;2024-03-23T06:36:26;14.27;;;3.50;;
5569;SDS011;2808;51.240;6.794;2024-03-23T06:38:55;16.03;;;4.30;;
5569;SDS011;2808;51.240;6.794;2024-03-23T06:41:23;15.30;;;3.93;;
5569;SDS011;2808;51.240;6.794;2024-03-23T06:43:52;17.50;;;4.13;;
5569;SDS011;2808;51.240;6.794;2024-03-23T06:46:18;15.50;;;4.03;;
5569;SDS011;2808;51.240;6.794;2024-03-23T06:48:46;25.37;;;5.00;;
5569;SDS011;2808;51.240;6.794;2024-03-23T06:51:12;18.93;;;3.90;;
5569;SDS011;2808;51.240;6.794;2024-03-23T06:53:40;9.10;;;4.10;;
5569;SDS011;2808;51.240;6.794;2024-03-23T06:56:06;14.90;;;4.53;;
5569;SDS011;2808;51.240;6.794;2024-03-23T06:58:35;19.13;;;4.77;;
5569;SDS011;2808;51.240;6.794;2024-03-23T07:01:01;13.57;;;4.47;;
5569;SDS011;2808;51.240;6.794;2024-03-23T07:03:38;15.97;;;5.43;;
5569;SDS011;2808;51.240;6.794;2024-03-23T07:06:05;19.23;;;4.97;;
5569;SDS011;2808;51.240;6.794;2024-03-23T07:08:32;23.83;;;4.83;;
5569;SDS011;2808;51.240;6.794;2024-03-23T07:10:59;16.37;;;4.40;;
5569;SDS011;2808;51.240;6.794;2024-03-23T07:13:27;18.43;;;4.47;;
5569;SDS011;2808;51.240;6.794;2024-03-23T07:15:55;22.47;;;5.23;;
5569;SDS011;2808;51.240;6.794;2024-03-23T07:18:27;16.30;;;5.03;;
5569;SDS011;2808;51.240;6.794;2024-03-23T07:20:55;25.87;;;5.30;;
5569;SDS011;2808;51.240;6.794;2024-03-23T07:23:23;24.30;;;5.27;;
5569;SDS011;2808;51.240;6.794;2024-03-23T07:25:56;17.77;;;4.43;;
5569;SDS011;2808;51.240;6.794;2024-03-23T07:28:26;26.93;;;5.27;;
5569;SDS011;2808;51.240;6.794;2024-03-23T07:31:04;15.40;;;4.13;;
5569;SDS011;2808;51.240;6.794;2024-03-23T07:33:33;13.13;;;3.90;;
5569;SDS011;2808;51.240;6.794;2024-03-23T07:36:01;18.17;;;5.43;;
5569;SDS011;2808;51.240;6.794;2024-03-23T07:38:29;16.50;;;4.10;;
5569;SDS011;2808;51.240;6.794;2024-03-23T07:41:02;12.97;;;4.27;;
5569;SDS011;2808;51.240;6.794;2024-03-23T07:43:43;19.90;;;5.43;;
5569;SDS011;2808;51.240;6.794;2024-03-23T07:46:23;17.60;;;3.97;;
5569;SDS011;2808;51.240;6.794;2024-03-23T07:48:51;19.03;;;3.77;;
5569;SDS011;2808;51.240;6.794;2024-03-23T07:51:22;19.63;;;5.70;;
5569;SDS011;2808;51.240;6.794;2024-03-23T07:53:49;18.23;;;4.30;;
5569;SDS011;2808;51.240;6.794;2024-03-23T07:56:17;17.97;;;5.07;;
5569;SDS011;2808;51.240;6.794;2024-03-23T07:58:45;20.60;;;3.73;;
5569;SDS011;2808;51.240;6.794;2024-03-23T08:01:13;20.53;;;4.67;;
5569;SDS011;2808;51.240;6.794;2024-03-23T08:03:42;15.87;;;4.00;;
5569;SDS011;2808;51.240;6.794;2024-03-23T08:06:14;22.30;;;4.50;;
5569;SDS011;2808;51.240;6.794;2024-03-23T08:08:47;11.40;;;3.57;;
5569;SDS011;2808;51.240;6.794;2024-03-23T08:11:24;15.07;;;4.20;;
5569;SDS011;2808;51.240;6.794;2024-03-23T08:13:53;16.80;;;4.37;;
5569;SDS011;2808;51.240;6.794;2024-03-23T08:16:26;12.87;;;4.10;;
5569;SDS011;2808;51.240;6.794;2024-03-23T08:18:55;25.87;;;4.37;;
5569;SDS011;2808;51.240;6.794;2024-03-23T08:21:30;16.93;;;4.43;;
5569;SDS011;2808;51.240;6.794;2024-03-23T08:23:57;16.27;;;4.10;;
5569;SDS011;2808;51.240;6.794;2024-03-23T08:26:28;13.90;;;3.67;;
5569;SDS011;2808;51.240;6.794;2024-03-23T08:29:03;17.80;;;4.27;;
5569;SDS011;2808;51.240;6.794;2024-03-23T08:31:34;14.43;;;3.70;;
5569;SDS011;2808;51.240;6.794;2024-03-23T08:34:03;13.60;;;3.40;;
5569;SDS011;2808;51.240;6.794;2024-03-23T08:36:33;16.03;;;3.27;;
5569;SDS011;2808;51.240;6.794;2024-03-23T08:42:16;14.63;;;3.37;;
5569;SDS011;2808;51.240;6.794;2024-03-23T08:45:11;13.90;;;3.13;;
5569;SDS011;2808;51.240;6.794;2024-03-23T08:47:53;17.27;;;3.47;;
5569;SDS011;2808;51.240;6.794;2024-03-23T08:50:28;15.47;;;3.40;;
5569;SDS011;2808;51.240;6.794;2024-03-23T08:53:16;14.57;;;3.60;;
5569;SDS011;2808;51.240;6.794;2024-03-23T08:55:57;14.60;;;3.17;;
5569;SDS011;2808;51.240;6.794;2024-03-23T08:58:27;20.63;;;3.37;;
5569;SDS011;2808;51.240;6.794;2024-03-23T09:01:10;15.53;;;3.10;;
5569;SDS011;2808;51.240;6.794;2024-03-23T09:04:36;13.17;;;2.47;;
5569;SDS011;2808;51.240;6.794;2024-03-23T09:07:07;11.57;;;2.77;;
5569;SDS011;2808;51.240;6.794;2024-03-23T09:09:34;14.90;;;3.00;;
5569;SDS011;2808;51.240;6.794;2024-03-23T09:12:21;14.33;;;2.87;;
5569;SDS011;2808;51.240;6.794;2024-03-23T09:14:49;16.30;;;3.20;;
5569;SDS011;2808;51.240;6.794;2024-03-23T09:17:18;8.50;;;2.70;;
5569;SDS011;2808;51.240;6.794;2024-03-23T09:19:48;13.60;;;2.63;;
5569;SDS011;2808;51.240;6.794;2024-03-23T09:22:17;15.40;;;2.90;;
5569;SDS011;2808;51.240;6.794;2024-03-23T09:24:44;17.23;;;3.90;;
5569;SDS011;2808;51.240;6.794;2024-03-23T09:59:27;9.53;;;2.80;;
5569;SDS011;2808;51.240;6.794;2024-03-23T10:02:30;17.30;;;3.73;;
5569;SDS011;2808;51.240;6.794;2024-03-23T10:58:18;3.30;;;1.07;;
5569;SDS011;2808;51.240;6.794;2024-03-23T11:00:59;4.40;;;1.20;;
5569;SDS011;2808;51.240;6.794;2024-03-23T11:03:31;3.43;;;0.90;;
5569;SDS011;2808;51.240;6.794;2024-03-23T11:06:01;3.37;;;1.20;;
5569;SDS011;2808;51.240;6.794;2024-03-23T11:08:32;9.87;;;1.40;;
5569;SDS011;2808;51.240;6.794;2024-03-23T11:13:51;4.70;;;1.20;;
5569;SDS011;2808;51.240;6.794;2024-03-23T11:16:25;4.60;;;1.10;;
5569;SDS011;2808;51.240;6.794;2024-03-23T11:18:53;6.07;;;1.30;;
5569;SDS011;2808;51.240;6.794;2024-03-23T11:21:51;5.03;;;1.23;;
5569;SDS011;2808;51.240;6.794;2024-03-23T11:24:19;5.03;;;1.50;;
5569;SDS011;2808;51.240;6.794;2024-03-23T11:27:36;5.20;;;1.33;;
5569;SDS011;2808;51.240;6.794;2024-03-23T11:29:58;6.67;;;1.30;;
5569;SDS011;2808;51.240;6.794;2024-03-23T11:32:37;6.50;;;1.70;;
5569;SDS011;2808;51.240;6.794;2024-03-23T11:35:05;4.23;;;1.30;;
5569;SDS011;2808;51.240;6.794;2024-03-23T11:37:34;4.73;;;1.30;;
5569;SDS011;2808;51.240;6.794;2024-03-23T11:40:19;5.00;;;1.50;;
5569;SDS011;2808;51.240;6.794;2024-03-23T11:42:46;5.50;;;1.80;;
5569;SDS011;2808;51.240;6.794;2024-03-23T11:48:20;5.07;;;1.73;;
5569;SDS011;2808;51.240;6.794;2024-03-23T11:50:49;9.70;;;1.80;;
5569;SDS011;2808;51.240;6.794;2024-03-23T11:53:20;6.20;;;1.63;;
5569;SDS011;2808;51.240;6.794;2024-03-23T11:55:48;7.03;;;1.30;;
5569;SDS011;2808;51.240;6.794;2024-03-23T11:58:17;6.43;;;1.30;;
5569;SDS011;2808;51.240;6.794;2024-03-23T12:00:51;3.07;;;1.10;;
5569;SDS011;2808;51.240;6.794;2024-03-23T12:03:21;4.70;;;1.50;;
5569;SDS011;2808;51.240;6.794;2024-03-23T12:05:51;4.57;;;1.00;;
5569;SDS011;2808;51.240;6.794;2024-03-23T12:08:20;5.37;;;1.00;;
5569;SDS011;2808;51.240;6.794;2024-03-23T12:10:51;6.50;;;0.87;;
5569;SDS011;2808;51.240;6.794;2024-03-23T12:13:20;3.80;;;1.10;;
5569;SDS011;2808;51.240;6.794;2024-03-23T12:15:47;3.07;;;0.90;;
5569;SDS011;2808;51.240;6.794;2024-03-23T12:18:19;5.00;;;1.30;;
5569;SDS011;2808;51.240;6.794;2024-03-23T12:20:51;2.97;;;1.07;;
5569;SDS011;2808;51.240;6.794;2024-03-23T12:23:19;3.20;;;0.90;;
5569;SDS011;2808;51.240;6.794;2024-03-23T12:25:51;4.27;;;1.13;;
5569;SDS011;2808;51.240;6.794;2024-03-23T12:28:31;5.73;;;1.67;;
5569;SDS011;2808;51.240;6.794;2024-03-23T12:31:10;9.23;;;1.80;;
5569;SDS011;2808;51.240;6.794;2024-03-23T12:33:37;7.30;;;1.60;;
5569;SDS011;2808;51.240;6.794;2024-03-23T12:36:10;9.47;;;2.00;;
5569;SDS011;2808;51.240;6.794;2024-03-23T12:38:37;5.83;;;1.50;;
5569;SDS011;2808;51.240;6.794;2024-03-23T12:41:18;8.50;;;1.87;;
5569;SDS011;2808;51.240;6.794;2024-03-23T12:43:56;13.17;;;2.47;;
5569;SDS011;2808;51.240;6.794;2024-03-23T12:46:39;6.30;;;1.67;;
5569;SDS011;2808;51.240;6.794;2024-03-23T12:49:17;3.77;;;1.33;;
5569;SDS011;2808;51.240;6.794;2024-03-23T12:51:57;4.30;;;1.20;;
5569;SDS011;2808;51.240;6.794;2024-03-23T12:54:42;6.53;;;1.27;;
5569;SDS011;2808;51.240;6.794;2024-03-23T12:57:28;5.10;;;1.27;;
5569;SDS011;2808;51.240;6.794;2024-03-23T13:00:18;6.87;;;1.43;;
5569;SDS011;2808;51.240;6.794;2024-03-23T13:02:55;8.37;;;1.53;;
5569;SDS011;2808;51.240;6.794;2024-03-23T13:05:34;5.97;;;1.47;;
5569;SDS011;2808;51.240;6.794;2024-03-23T13:08:02;4.53;;;1.33;;
5569;SDS011;2808;51.240;6.794;2024-03-23T13:10:34;13.50;;;1.83;;
5569;SDS011;2808;51.240;6.794;2024-03-23T13:13:19;18.17;;;1.70;;
5569;SDS011;2808;51.240;6.794;2024-03-23T13:15:51;4.03;;;1.37;;
5569;SDS011;2808;51.240;6.794;2024-03-23T13:18:22;4.53;;;1.30;;
5569;SDS011;2808;51.240;6.794;2024-03-23T13:20:56;7.80;;;1.60;;
5569;SDS011;2808;51.240;6.794;2024-03-23T13:23:27;4.87;;;1.20;;
5569;SDS011;2808;51.240;6.794;2024-03-23T13:34:57;11.83;;;1.20;;
5569;SDS011;2808;51.240;6.794;2024-03-23T13:36:04;9.10;;;1.33;;
5569;SDS011;2808;51.240;6.794;2024-03-23T13:42:09;7.17;;;1.20;;
5569;SDS011;2808;51.240;6.794;2024-03-23T13:45:11;7.53;;;1.60;;
5569;SDS011;2808;51.240;6.794;2024-03-23T13:51:07;4.70;;;1.27;;
5569;SDS011;2808;51.240;6.794;2024-03-23T13:53:40;8.97;;;1.53;;
5569;SDS011;2808;51.240;6.794;2024-03-23T13:56:20;7.50;;;1.53;;
5569;SDS011;2808;51.240;6.794;2024-03-23T13:58:52;7.37;;;1.87;;
5569;SDS011;2808;51.240;6.794;2024-03-23T14:01:23;4.60;;;1.20;;
5569;SDS011;2808;51.240;6.794;2024-03-23T14:03:54;7.57;;;2.10;;
5569;SDS011;2808;51.240;6.794;2024-03-23T14:06:27;5.50;;;1.27;;
5569;SDS011;2808;51.240;6.794;2024-03-23T14:08:54;5.30;;;1.50;;
5569;SDS011;2808;51.240;6.794;2024-03-23T14:11:22;6.10;;;1.30;;
5569;SDS011;2808;51.240;6.794;2024-03-23T14:13:51;7.13;;;1.50;;
5569;SDS011;2808;51.240;6.794;2024-03-23T14:16:19;7.30;;;1.43;;
5569;SDS011;2808;51.240;6.794;2024-03-23T14:18:48;5.23;;;1.50;;
5569;SDS011;2808;51.240;6.794;2024-03-23T14:21:23;7.23;;;1.50;;
5569;SDS011;2808;51.240;6.794;2024-03-23T14:23:54;7.00;;;2.67;;
5569;SDS011;2808;51.240;6.794;2024-03-23T14:26:26;6.20;;;1.60;;
5569;SDS011;2808;51.240;6.794;2024-03-23T14:28:53;10.53;;;2.20;;
5569;SDS011;2808;51.240;6.794;2024-03-23T14:31:28;12.60;;;1.70;;
5569;SDS011;2808;51.240;6.794;2024-03-23T14:34:06;5.90;;;1.67;;
5569;SDS011;2808;51.240;6.794;2024-03-23T14:36:39;5.80;;;1.60;;
5569;SDS011;2808;51.240;6.794;2024-03-23T14:39:09;10.83;;;1.40;;
5569;SDS011;2808;51.240;6.794;2024-03-23T14:41:40;6.30;;;1.70;;
5569;SDS011;2808;51.240;6.794;2024-03-23T14:44:13;8.70;;;2.07;;
5569;SDS011;2808;51.240;6.794;2024-03-23T14:46:41;5.93;;;1.20;;
5569;SDS011;2808;51.240;6.794;2024-03-23T14:49:08;5.93;;;1.27;;
5569;SDS011;2808;51.240;6.794;2024-03-23T14:51:42;4.10;;;1.20;;
5569;SDS011;2808;51.240;6.794;2024-03-23T14:54:10;4.57;;;1.10;;
5569;SDS011;2808;51.240;6.794;2024-03-23T14:56:38;5.97;;;1.40;;
5569;SDS011;2808;51.240;6.794;2024-03-23T14:59:04;5.03;;;1.40;;
5569;SDS011;2808;51.240;6.794;2024-03-23T15:01:32;7.77;;;1.40;;
5569;SDS011;2808;51.240;6.794;2024-03-23T15:03:59;4.47;;;1.37;;
5569;SDS011;2808;51.240;6.794;2024-03-23T15:06:30;3.90;;;1.47;;
5569;SDS011;2808;51.240;6.794;2024-03-23T15:08:59;7.67;;;1.73;;
5569;SDS011;2808;51.240;6.794;2024-03-23T15:11:37;5.57;;;1.40;;
5569;SDS011;2808;51.240;6.794;2024-03-23T15:14:04;4.67;;;1.50;;
5569;SDS011;2808;51.240;6.794;2024-03-23T15:16:33;4.87;;;1.50;;
5569;SDS011;2808;51.240;6.794;2024-03-23T15:19:00;5.10;;;1.50;;
5569;SDS011;2808;51.240;6.794;2024-03-23T15:21:30;11.67;;;1.77;;
5569;SDS011;2808;51.240;6.794;2024-03-23T15:23:57;4.30;;;1.40;;
5569;SDS011;2808;51.240;6.794;2024-03-23T15:26:27;4.30;;;1.20;;
5569;SDS011;2808;51.240;6.794;2024-03-23T15:28:55;4.13;;;1.50;;
5569;SDS011;2808;51.240;6.794;2024-03-23T15:31:37;3.53;;;1.40;;
5569;SDS011;2808;51.240;6.794;2024-03-23T15:34:18;3.93;;;1.60;;
5569;SDS011;2808;51.240;6.794;2024-03-23T15:36:46;7.30;;;2.03;;
5569;SDS011;2808;51.240;6.794;2024-03-23T15:39:14;4.83;;;1.50;;
5569;SDS011;2808;51.240;6.794;2024-03-23T15:41:43;4.30;;;1.33;;
5569;SDS011;2808;51.240;6.794;2024-03-23T15:44:19;4.83;;;1.40;;
5569;SDS011;2808;51.240;6.794;2024-03-23T15:46:47;5.83;;;1.43;;
5569;SDS011;2808;51.240;6.794;2024-03-23T15:49:13;8.87;;;1.70;;
5569;SDS011;2808;51.240;6.794;2024-03-23T15:51:44;4.80;;;1.50;;
5569;SDS011;2808;51.240;6.794;2024-03-23T15:54:12;5.23;;;1.50;;
5569;SDS011;2808;51.240;6.794;2024-03-23T15:56:43;11.20;;;1.50;;
5569;SDS011;2808;51.240;6.794;2024-03-23T15:59:11;6.47;;;1.60;;
5569;SDS011;2808;51.240;6.794;2024-03-23T16:01:39;6.10;;;1.70;;
5569;SDS011;2808;51.240;6.794;2024-03-23T16:04:12;6.13;;;1.27;;
5569;SDS011;2808;51.240;6.794;2024-03-23T16:06:42;6.37;;;1.60;;
5569;SDS011;2808;51.240;6.794;2024-03-23T16:09:14;7.77;;;1.60;;
5569;SDS011;2808;51.240;6.794;2024-03-23T16:11:41;4.00;;;1.37;;
5569;SDS011;2808;51.240;6.794;2024-03-23T16:14:11;5.70;;;1.40;;
5569;SDS011;2808;51.240;6.794;2024-03-23T16:16:39;5.50;;;1.73;;
5569;SDS011;2808;51.240;6.794;2024-03-23T16:19:10;4.50;;;1.60;;
5569;SDS011;2808;51.240;6.794;2024-03-23T16:21:39;5.37;;;1.63;;
5569;SDS011;2808;51.240;6.794;2024-03-23T16:24:06;8.93;;;1.47;;
5569;SDS011;2808;51.240;6.794;2024-03-23T16:26:34;8.10;;;1.50;;
5569;SDS011;2808;51.240;6.794;2024-03-23T16:29:02;9.90;;;1.40;;
5569;SDS011;2808;51.240;6.794;2024-03-23T16:31:34;5.43;;;1.37;;
5569;SDS011;2808;51.240;6.794;2024-03-23T16:34:00;6.40;;;1.60;;
5569;SDS011;2808;51.240;6.794;2024-03-23T16:36:30;4.80;;;1.50;;
5569;SDS011;2808;51.240;6.794;2024-03-23T16:38:57;5.37;;;1.60;;
5569;SDS011;2808;51.240;6.794;2024-03-23T16:41:25;5.07;;;1.30;;
5569;SDS011;2808;51.240;6.794;2024-03-23T16:43:56;4.53;;;1.30;;
5569;SDS011;2808;51.240;6.794;2024-03-23T16:46:24;4.70;;;1.70;;
5569;SDS011;2808;51.240;6.794;2024-03-23T16:48:52;4.50;;;1.80;;
5569;SDS011;2808;51.240;6.794;2024-03-23T16:51:20;5.10;;;1.60;;
5569;SDS011;2808;51.240;6.794;2024-03-23T16:53:48;4.20;;;1.40;;
5569;SDS011;2808;51.240;6.794;2024-03-23T16:56:16;4.60;;;1.50;;
5569;SDS011;2808;51.240;6.794;2024-03-23T16:58:43;4.03;;;1.60;;
5569;SDS011;2808;51.240;6.794;2024-03-23T17:01:11;3.77;;;1.50;;
5569;SDS011;2808;51.240;6.794;2024-03-23T17:03:46;5.43;;;1.40;;
5569;SDS011;2808;51.240;6.794;2024-03-23T17:06:20;6.53;;;1.60;;
5569;SDS011;2808;51.240;6.794;2024-03-23T17:08:49;5.30;;;1.40;;
5569;SDS011;2808;51.240;6.794;2024-03-23T17:11:18;3.67;;;1.40;;
5569;SDS011;2808;51.240;6.794;2024-03-23T17:13:50;4.87;;;1.33;;
5569;SDS011;2808;51.240;6.794;2024-03-23T17:16:19;6.80;;;1.33;;
5569;SDS011;2808;51.240;6.794;2024-03-23T17:18:47;6.30;;;1.80;;
5569;SDS011;2808;51.240;6.794;2024-03-23T17:21:18;5.30;;;1.60;;
5569;SDS011;2808;51.240;6.794;2024-03-23T17:23:45;4.90;;;1.30;;
5569;SDS011;2808;51.240;6.794;2024-03-23T17:26:13;7.23;;;1.37;;
5569;SDS011;2808;51.240;6.794;2024-03-23T17:28:40;6.03;;;1.73;;
5569;SDS011;2808;51.240;6.794;2024-03-23T17:31:14;10.27;;;2.17;;
5569;SDS011;2808;51.240;6.794;2024-03-23T17:33:45;5.40;;;1.50;;
5569;SDS011;2808;51.240;6.794;2024-03-23T17:36:20;8.13;;;2.47;;
5569;SDS011;2808;51.240;6.794;2024-03-23T17:38:52;7.97;;;2.37;;
5569;SDS011;2808;51.240;6.794;2024-03-23T17:41:21;5.73;;;2.10;;
5569;SDS011;2808;51.240;6.794;2024-03-23T17:43:47;8.50;;;2.10;;
5569;SDS011;2808;51.240;6.794;2024-03-23T17:46:23;4.80;;;1.90;;
5569;SDS011;2808;51.240;6.794;2024-03-23T17:48:49;4.53;;;2.00;;
5569;SDS011;2808;51.240;6.794;2024-03-23T17:51:17;5.73;;;1.73;;
5569;SDS011;2808;51.240;6.794;2024-03-23T17:53:45;5.80;;;1.77;;
5569;SDS011;2808;51.240;6.794;2024-03-23T17:56:13;4.87;;;2.00;;
5569;SDS011;2808;51.240;6.794;2024-03-23T17:58:42;6.10;;;1.47;;
5569;SDS011;2808;51.240;6.794;2024-03-23T18:01:13;8.70;;;1.80;;
5569;SDS011;2808;51.240;6.794;2024-03-23T18:03:42;9.70;;;2.00;;
5569;SDS011;2808;51.240;6.794;2024-03-23T18:06:09;5.90;;;1.77;;
5569;SDS011;2808;51.240;6.794;2024-03-23T18:08:41;8.57;;;2.00;;
5569;SDS011;2808;51.240;6.794;2024-03-23T18:11:18;9.60;;;2.33;;